createdAt,value
2018-10-11T00:00:24.501Z,11.10
2018-10-11T00:03:27.615Z,11.43
2018-10-11T00:06:30.722Z,11.30
2018-10-11T00:09:33.831Z,11.03
2018-10-11T00:12:37.174Z,10.20
2018-10-11T00:15:40.300Z,11.60
2018-10-11T00:18:44.495Z,11.27
2018-10-11T00:21:47.619Z,11.13
2018-10-11T00:24:50.723Z,11.40
2018-10-11T00:27:53.828Z,10.87
2018-10-11T00:30:56.923Z,10.50
2018-10-11T00:34:00.100Z,11.40
2018-10-11T00:37:03.203Z,11.10
2018-10-11T00:40:07.172Z,11.70
2018-10-11T00:43:10.329Z,10.50
2018-10-11T00:46:13.476Z,10.10
2018-10-11T00:49:16.644Z,11.33
2018-10-11T00:52:19.756Z,10.85
2018-10-11T00:55:22.946Z,11.10
2018-10-11T00:58:27.333Z,11.70
2018-10-11T01:01:30.464Z,11.40
2018-10-11T01:04:33.645Z,11.50
2018-10-11T01:07:36.792Z,11.07
2018-10-11T01:10:41.035Z,11.20
2018-10-11T01:13:44.207Z,11.50
2018-10-11T01:16:47.317Z,10.73
2018-10-11T01:19:51.533Z,11.27
2018-10-11T01:22:54.688Z,12.10
2018-10-11T01:25:57.856Z,11.77
2018-10-11T01:29:01.014Z,11.70
2018-10-11T01:32:04.230Z,12.20
2018-10-11T01:35:07.457Z,11.80
2018-10-11T01:38:10.609Z,12.17
2018-10-11T01:41:13.930Z,11.40
2018-10-11T01:44:17.059Z,11.17
2018-10-11T01:47:20.209Z,12.27
2018-10-11T01:50:23.356Z,11.23
2018-10-11T01:53:26.461Z,12.00
2018-10-11T01:56:30.106Z,11.77
2018-10-11T01:59:33.559Z,11.77
2018-10-11T02:02:36.721Z,12.10
2018-10-11T02:05:39.867Z,12.07
2018-10-11T02:08:42.999Z,11.97
2018-10-11T02:11:46.171Z,12.57
2018-10-11T02:14:49.339Z,12.17
2018-10-11T02:17:52.499Z,11.80
2018-10-11T02:20:55.724Z,12.17
2018-10-11T02:23:59.015Z,11.97
2018-10-11T02:27:02.337Z,11.47
2018-10-11T02:30:05.500Z,12.90
2018-10-11T02:33:08.641Z,12.33
2018-10-11T02:36:11.779Z,12.47
2018-10-11T02:39:14.888Z,12.13
2018-10-11T02:42:18.013Z,12.60
2018-10-11T02:45:21.147Z,12.20
2018-10-11T02:48:24.420Z,12.27
2018-10-11T02:51:27.561Z,11.90
2018-10-11T02:54:30.691Z,12.70
2018-10-11T02:57:45.243Z,12.67
2018-10-11T03:00:48.377Z,12.50
2018-10-11T03:03:54.709Z,12.97
2018-10-11T03:06:58.699Z,12.77
2018-10-11T03:10:01.834Z,12.43
2018-10-11T03:13:07.679Z,12.67
2018-10-11T03:16:10.857Z,12.70
2018-10-11T03:19:14.000Z,13.27
2018-10-11T03:22:17.132Z,13.10
2018-10-11T03:25:20.260Z,12.50
2018-10-11T03:28:23.429Z,13.10
2018-10-11T03:31:26.577Z,12.60
2018-10-11T03:34:30.195Z,12.47
2018-10-11T03:37:33.827Z,12.53
2018-10-11T03:40:36.994Z,10.87
2018-10-11T03:43:40.100Z,11.23
2018-10-11T03:46:43.254Z,11.13
2018-10-11T03:49:46.475Z,10.80
2018-10-11T03:52:49.731Z,11.77
2018-10-11T03:55:52.836Z,11.00
2018-10-11T03:58:56.107Z,10.70
2018-10-11T04:01:59.368Z,10.07
2018-10-11T04:05:02.515Z,11.00
2018-10-11T04:08:05.784Z,10.83
2018-10-11T04:11:08.971Z,10.97
2018-10-11T04:14:12.074Z,10.50
2018-10-11T04:17:15.238Z,11.47
2018-10-11T04:20:18.379Z,10.60
2018-10-11T04:23:27.664Z,10.93
2018-10-11T04:26:30.783Z,11.35
2018-10-11T04:29:33.917Z,11.37
2018-10-11T04:32:37.056Z,11.17
2018-10-11T04:35:40.261Z,10.80
2018-10-11T04:38:43.407Z,11.10
2018-10-11T04:41:46.601Z,11.40
2018-10-11T04:44:49.762Z,11.70
2018-10-11T04:47:52.881Z,11.70
2018-10-11T04:50:56.009Z,12.23
2018-10-11T04:53:59.096Z,11.20
2018-10-11T04:57:02.281Z,11.80
2018-10-11T05:00:05.436Z,11.63
2018-10-11T05:03:09.695Z,12.50
2018-10-11T05:06:12.922Z,12.03
2018-10-11T05:09:16.024Z,12.43
2018-10-11T05:12:19.167Z,12.70
2018-10-11T05:15:22.269Z,12.23
2018-10-11T05:18:25.412Z,12.57
2018-10-11T05:21:28.655Z,12.30
2018-10-11T05:24:31.748Z,12.27
2018-10-11T05:27:34.911Z,12.97
2018-10-11T05:30:40.733Z,12.90
2018-10-11T05:33:44.148Z,12.53
2018-10-11T05:36:47.289Z,12.17
2018-10-11T05:39:50.396Z,13.00
2018-10-11T05:42:54.436Z,12.67
2018-10-11T05:45:59.705Z,13.03
2018-10-11T05:49:04.020Z,13.43
2018-10-11T05:52:07.689Z,12.67
2018-10-11T05:55:10.894Z,12.88
2018-10-11T05:58:14.165Z,12.37
2018-10-11T06:01:17.307Z,11.87
2018-10-11T06:04:20.457Z,12.57
2018-10-11T06:07:23.621Z,12.40
2018-10-11T06:10:27.696Z,13.10
2018-10-11T06:13:30.840Z,12.97
2018-10-11T06:16:34.044Z,12.10
2018-10-11T06:19:37.169Z,12.57
2018-10-11T06:22:40.465Z,12.57
2018-10-11T06:25:43.599Z,12.60
2018-10-11T06:28:46.794Z,13.23
2018-10-11T06:31:49.905Z,12.70
2018-10-11T06:34:53.059Z,12.27
2018-10-11T06:37:56.222Z,12.63
2018-10-11T06:40:59.377Z,12.60
2018-10-11T06:44:02.572Z,13.00
2018-10-11T06:47:05.717Z,12.57
2018-10-11T06:50:10.232Z,12.60
2018-10-11T06:53:13.417Z,12.87
2018-10-11T06:56:16.636Z,12.57
2018-10-11T06:59:19.792Z,13.03
2018-10-11T07:02:22.918Z,12.07
2018-10-11T07:05:26.134Z,12.53
2018-10-11T07:08:29.268Z,12.23
2018-10-11T07:11:32.393Z,13.07
2018-10-11T07:14:35.580Z,13.00
2018-10-11T07:17:39.192Z,13.73
2018-10-11T07:20:42.288Z,13.03
2018-10-11T07:23:45.430Z,12.30
2018-10-11T07:26:48.577Z,12.63
2018-10-11T07:29:51.736Z,12.93
2018-10-11T07:32:54.952Z,12.20
2018-10-11T07:35:58.108Z,12.90
2018-10-11T07:39:02.331Z,12.67
2018-10-11T07:42:05.441Z,12.37
2018-10-11T07:45:08.629Z,12.57
2018-10-11T07:48:11.723Z,12.40
2018-10-11T07:51:14.873Z,12.87
2018-10-11T07:54:17.977Z,12.50
2018-10-11T07:57:21.152Z,12.07
2018-10-11T08:00:24.324Z,12.80
2018-10-11T08:03:27.557Z,12.47
2018-10-11T08:06:30.653Z,12.60
2018-10-11T08:09:34.842Z,12.30
2018-10-11T08:12:38.966Z,11.80
2018-10-11T08:15:42.148Z,12.23
2018-10-11T08:18:45.288Z,12.33
2018-10-11T08:21:48.447Z,12.67
2018-10-11T08:24:51.601Z,11.87
2018-10-11T08:27:54.649Z,12.43
2018-10-11T08:30:57.857Z,12.83
2018-10-11T08:34:00.999Z,12.87
2018-10-11T08:37:04.185Z,12.47
2018-10-11T08:40:07.370Z,11.87
2018-10-11T08:43:10.538Z,12.40
2018-10-11T08:46:13.837Z,12.07
2018-10-11T08:49:17.142Z,11.80
2018-10-11T08:52:20.352Z,12.77
2018-10-11T08:55:23.680Z,12.47
2018-10-11T08:58:26.817Z,12.43
2018-10-11T09:01:30.032Z,11.83
2018-10-11T09:04:33.336Z,12.43
2018-10-11T09:07:36.564Z,12.00
2018-10-11T09:10:39.788Z,12.40
2018-10-11T09:13:43.015Z,12.07
2018-10-11T09:16:46.697Z,12.63
2018-10-11T09:19:49.879Z,57.27
2018-10-11T09:22:53.042Z,46.02
2018-10-11T09:25:56.286Z,21.10
2018-10-11T09:28:59.448Z,16.47
2018-10-11T09:32:02.588Z,15.10
2018-10-11T09:35:06.228Z,14.83
2018-10-11T09:38:09.409Z,14.40
2018-10-11T09:41:12.564Z,14.10
2018-10-11T09:44:15.672Z,14.30
2018-10-11T09:47:18.778Z,13.80
2018-10-11T09:50:21.955Z,13.57
2018-10-11T09:53:25.005Z,13.90
2018-10-11T09:56:37.923Z,14.13
2018-10-11T09:59:41.193Z,14.23
2018-10-11T10:02:44.743Z,13.53
2018-10-11T10:05:47.823Z,15.37
2018-10-11T10:08:50.896Z,14.63
2018-10-11T10:11:54.024Z,14.00
2018-10-11T10:14:57.148Z,14.33
2018-10-11T10:18:00.573Z,13.67
2018-10-11T10:21:03.959Z,13.00
2018-10-11T10:24:07.442Z,13.13
2018-10-11T10:27:10.890Z,12.83
2018-10-11T10:30:19.474Z,12.93
2018-10-11T10:33:24.293Z,13.10
2018-10-11T10:36:27.931Z,13.00
2018-10-11T10:39:31.433Z,12.80
2018-10-11T10:42:34.916Z,12.60
2018-10-11T10:45:38.391Z,12.00
2018-10-11T10:48:42.164Z,11.70
2018-10-11T10:51:45.545Z,11.17
2018-10-11T10:54:48.941Z,12.03
2018-10-11T10:57:52.463Z,11.97
2018-10-11T11:00:55.981Z,11.33
2018-10-11T11:03:59.285Z,11.80
2018-10-11T11:07:02.840Z,11.57
2018-10-11T11:10:07.035Z,11.57
2018-10-11T11:13:10.461Z,10.60
2018-10-11T11:16:13.771Z,11.03
2018-10-11T11:19:17.403Z,10.80
2018-10-11T11:22:20.653Z,10.77
2018-10-11T11:25:23.870Z,11.33
2018-10-11T11:28:27.017Z,10.57
2018-10-11T11:31:30.720Z,10.50
2018-10-11T11:34:33.883Z,10.20
2018-10-11T11:37:37.073Z,10.43
2018-10-11T11:40:41.365Z,10.17
2018-10-11T11:43:44.472Z,11.23
2018-10-11T11:46:47.667Z,9.70
2018-10-11T11:49:51.858Z,10.30
2018-10-11T11:52:55.005Z,10.60
2018-10-11T11:55:59.288Z,10.37
2018-10-11T11:59:02.380Z,10.10
2018-10-11T12:02:05.658Z,10.60
2018-10-11T12:05:08.827Z,10.60
2018-10-11T12:08:11.946Z,10.20
2018-10-11T12:11:15.116Z,10.77
2018-10-11T12:14:18.352Z,10.20
2018-10-11T12:17:21.496Z,10.13
2018-10-11T12:20:25.982Z,10.43
2018-10-11T12:23:29.180Z,10.30
2018-10-11T12:26:32.364Z,10.73
2018-10-11T12:29:35.528Z,9.57
2018-10-11T12:32:38.657Z,10.57
2018-10-11T12:35:41.828Z,10.30
2018-10-11T12:38:45.015Z,10.83
2018-10-11T12:41:48.154Z,9.97
2018-10-11T12:44:51.312Z,10.07
2018-10-11T12:47:54.545Z,10.37
2018-10-11T12:50:58.697Z,10.30
2018-10-11T12:54:02.910Z,10.53
2018-10-11T12:57:06.202Z,10.13
2018-10-11T13:00:11.055Z,10.60
2018-10-11T13:03:14.235Z,10.20
2018-10-11T13:06:17.297Z,9.93
2018-10-11T13:09:22.789Z,10.10
2018-10-11T13:12:26.182Z,9.90
2018-10-11T13:15:29.365Z,10.17
2018-10-11T13:18:33.603Z,9.93
2018-10-11T13:21:36.852Z,10.53
2018-10-11T13:24:43.354Z,10.33
2018-10-11T13:27:43.297Z,10.00
2018-10-11T13:30:47.547Z,9.97
2018-10-11T13:33:52.855Z,10.43
2018-10-11T13:36:55.117Z,9.93
2018-10-11T13:40:03.143Z,10.53
2018-10-11T13:43:06.436Z,10.13
2018-10-11T13:46:09.640Z,9.90
2018-10-11T13:49:13.108Z,9.47
2018-10-11T13:52:19.285Z,9.80
2018-10-11T13:55:19.579Z,9.47
2018-10-11T13:58:22.813Z,10.07
2018-10-11T14:01:26.060Z,10.50
2018-10-11T14:04:29.439Z,10.37
2018-10-11T14:07:32.838Z,9.50
2018-10-11T14:10:36.056Z,10.77
2018-10-11T14:13:39.842Z,11.00
2018-10-11T14:16:43.143Z,10.40
2018-10-11T14:19:46.486Z,10.00
2018-10-11T14:22:50.785Z,10.17
2018-10-11T14:25:54.636Z,10.57
2018-10-11T14:28:57.772Z,10.80
2018-10-11T14:32:00.967Z,9.83
2018-10-11T14:35:04.263Z,9.97
2018-10-11T14:38:07.544Z,10.00
2018-10-11T14:41:10.732Z,10.20
2018-10-11T14:44:13.909Z,10.47
2018-10-11T14:47:18.144Z,9.97
2018-10-11T14:50:21.241Z,9.97
2018-10-11T14:53:24.436Z,10.10
2018-10-11T14:56:27.541Z,9.93
2018-10-11T14:59:30.850Z,10.37
2018-10-11T15:02:34.027Z,9.37
2018-10-11T15:05:37.415Z,9.20
2018-10-11T15:08:40.633Z,9.83
2018-10-11T15:11:43.869Z,9.90
2018-10-11T15:14:47.053Z,9.77
2018-10-11T15:17:50.244Z,10.07
2018-10-11T15:20:53.395Z,9.83
2018-10-11T15:23:56.658Z,9.50
2018-10-11T15:26:59.692Z,9.50
2018-10-11T15:30:02.828Z,9.27
2018-10-11T15:33:05.982Z,9.97
2018-10-11T15:36:09.188Z,10.00
2018-10-11T15:39:13.338Z,10.00
2018-10-11T15:42:16.503Z,10.20
2018-10-11T15:45:19.691Z,9.73
2018-10-11T15:48:22.894Z,9.20
2018-10-11T15:51:25.975Z,9.40
2018-10-11T15:54:29.190Z,9.53
2018-10-11T15:57:32.363Z,8.93
2018-10-11T16:00:35.561Z,9.33
2018-10-11T16:03:38.990Z,9.60
2018-10-11T16:06:42.161Z,9.80
2018-10-11T16:09:45.340Z,10.10
2018-10-11T16:12:48.472Z,9.67
2018-10-11T16:15:51.585Z,10.03
2018-10-11T16:18:55.772Z,10.30
2018-10-11T16:22:00.024Z,9.40
2018-10-11T16:25:03.125Z,9.33
2018-10-11T16:28:06.353Z,11.65
2018-10-11T16:31:10.592Z,22.53
2018-10-11T16:34:13.852Z,18.33
2018-10-11T16:37:16.992Z,22.03
2018-10-11T16:40:20.151Z,19.83
2018-10-11T16:43:23.401Z,14.10
2018-10-11T16:46:26.638Z,12.90
2018-10-11T16:49:29.818Z,11.80
2018-10-11T16:52:33.136Z,16.93
2018-10-11T16:55:36.260Z,14.93
2018-10-11T16:58:39.457Z,14.57
2018-10-11T17:01:42.673Z,14.37
2018-10-11T17:04:45.900Z,14.63
2018-10-11T17:07:49.145Z,13.58
2018-10-11T17:10:52.320Z,12.80
2018-10-11T17:13:55.616Z,12.93
2018-10-11T17:16:58.789Z,12.47
2018-10-11T17:20:01.968Z,12.30
2018-10-11T17:23:05.152Z,11.93
2018-10-11T17:26:08.273Z,13.53
2018-10-11T17:29:11.368Z,16.87
2018-10-11T17:32:14.558Z,18.37
2018-10-11T17:35:17.730Z,21.53
2018-10-11T17:38:21.448Z,21.60
2018-10-11T17:41:24.608Z,22.13
2018-10-11T17:44:27.740Z,21.57
2018-10-11T17:47:30.911Z,20.40
2018-10-11T17:50:34.057Z,18.97
2018-10-11T17:53:38.258Z,19.13
2018-10-11T17:56:41.437Z,17.27
2018-10-11T17:59:44.782Z,17.33
2018-10-11T18:02:48.068Z,15.43
2018-10-11T18:05:51.319Z,14.93
2018-10-11T18:08:54.436Z,14.00
2018-10-11T18:11:58.033Z,13.90
2018-10-11T18:15:01.245Z,43.70
2018-10-11T18:18:04.424Z,49.35
2018-10-11T18:21:07.696Z,39.97
2018-10-11T18:24:10.787Z,33.27
2018-10-11T18:27:13.887Z,29.37
2018-10-11T18:30:17.064Z,26.50
2018-10-11T18:33:20.369Z,22.97
2018-10-11T18:36:23.714Z,20.30
2018-10-11T18:39:26.928Z,18.00
2018-10-11T18:42:30.111Z,17.60
2018-10-11T18:45:33.440Z,16.20
2018-10-11T18:48:36.577Z,15.10
2018-10-11T18:51:41.783Z,14.97
2018-10-11T18:54:44.994Z,13.57
2018-10-11T18:57:48.253Z,13.13
2018-10-11T19:00:51.335Z,11.10
2018-10-11T19:03:55.577Z,11.10
2018-10-11T19:10:08.413Z,11.70
2018-10-11T19:13:11.615Z,11.00
2018-10-11T19:16:15.821Z,10.80
2018-10-11T19:19:18.960Z,10.63
2018-10-11T19:22:23.239Z,11.00
2018-10-11T19:25:26.441Z,11.18
2018-10-11T19:28:29.604Z,77.57
2018-10-11T19:31:32.843Z,65.10
2018-10-11T19:34:36.093Z,27.53
2018-10-11T19:37:39.352Z,20.40
2018-10-11T19:40:42.528Z,13.93
2018-10-11T19:43:45.764Z,12.63
2018-10-11T19:46:48.892Z,11.03
2018-10-11T19:49:52.043Z,10.43
2018-10-11T19:52:55.140Z,10.57
2018-10-11T19:55:58.386Z,10.87
2018-10-11T19:59:01.465Z,10.43
2018-10-11T20:02:04.697Z,11.00
2018-10-11T20:05:07.849Z,11.60
2018-10-11T20:08:11.006Z,10.77
2018-10-11T20:11:14.052Z,10.80
2018-10-11T20:14:17.200Z,10.27
2018-10-11T20:17:21.574Z,11.07
2018-10-11T20:20:25.530Z,10.00
2018-10-11T20:23:28.737Z,10.70
2018-10-11T20:26:31.948Z,10.07
2018-10-11T20:29:35.093Z,10.63
2018-10-11T20:32:39.246Z,10.97
2018-10-11T20:35:42.425Z,10.70
2018-10-11T20:38:45.578Z,10.97
2018-10-11T20:41:48.681Z,11.83
2018-10-11T20:44:51.806Z,11.80
2018-10-11T20:47:54.996Z,10.90
2018-10-11T20:50:58.255Z,12.47
2018-10-11T20:54:01.296Z,11.70
2018-10-11T20:57:04.408Z,10.97
2018-10-11T21:00:08.240Z,11.73
2018-10-11T21:03:11.407Z,11.47
2018-10-11T21:06:14.534Z,13.93
2018-10-11T21:09:22.337Z,31.33
2018-10-11T21:12:25.530Z,24.87
2018-10-11T21:15:28.678Z,21.10
2018-10-11T21:18:31.762Z,17.35
2018-10-11T21:21:34.892Z,18.87
2018-10-11T21:24:38.743Z,16.50
2018-10-11T21:27:45.481Z,14.00
2018-10-11T21:30:48.823Z,13.27
2018-10-11T21:33:52.064Z,12.37
2018-10-11T21:36:55.237Z,11.97
2018-10-11T21:39:58.321Z,12.20
2018-10-11T21:43:01.510Z,12.63
